Time,TemperatureF,DewpointF,PressureIn,WindDirection,WindDirectionDegrees,WindSpeedMPH,WindSpeedGustMPH,Humidity,HourlyPrecipIn,Conditions,Clouds,dailyrainin,SolarRadiationWatts/m^2,SoftwareType,DateUTC
2013-01-01 00:10:00,-4.6,-11.3,30.28,NW,309,3.0,5.0,72,0.00,CLR,OVC,0.00,0.0,WeatherDisplay:10.37,2013-01-01 06:10:00,
2013-01-01 00:20:00,-5.2,-11.9,30.28,WNW,297,3.0,6.0,72,0.00,CLR,OVC,0.00,0.0,WeatherDisplay:10.37,2013-01-01 06:20:00,
2013-01-01 00:30:00,-5.6,-12.3,30.28,WNW,302,2.0,6.0,72,0.00,CLR,OVC,0.00,0.0,WeatherDisplay:10.37,2013-01-01 06:30:00,
2013-01-01 00:40:00,-6.1,-12.8,30.29,WNW,302,1.0,3.0,72,0.00,CLR,OVC,0.00,0.0,WeatherDisplay:10.37,2013-01-01 06:40:00,
2013-01-01 00:50:00,-6.5,-13.5,30.29,WNW,302,2.0,3.0,71,0.00,CLR,OVC,0.00,0.0,WeatherDisplay:10.37,2013-01-01 06:50:00,
2013-01-01 00:59:00,-7.0,-13.7,30.29,WNW,302,3.0,4.0,72,0.00,CLR,OVC,0.00,0.0,WeatherDisplay:10.37,2013-01-01 06:59:00,
2013-01-01 01:09:00,-7.2,-13.8,30.29,WNW,302,3.0,4.0,72,0.00,CLR,OVC,0.00,0.0,WeatherDisplay:10.37,2013-01-01 07:09:00,
2013-01-01 01:20:00,-7.5,-14.1,30.29,WNW,302,2.0,4.0,72,0.00,CLR,OVC,0.00,0.0,WeatherDisplay:10.37,2013-01-01 07:20:00,
2013-01-01 01:30:00,-7.9,-14.5,30.29,WNW,302,2.0,4.0,72,0.00,CLR,OVC,0.00,0.0,WeatherDisplay:10.37,2013-01-01 07:30:00,
2013-01-01 01:40:00,-8.2,-14.8,30.29,WNW,302,3.0,4.0,72,0.00,CLR,OVC,0.00,0.0,WeatherDisplay:10.37,2013-01-01 07:40:00,
2013-01-01 01:50:00,-8.4,-15.0,30.29,WNW,302,2.0,5.0,72,0.00,CLR,OVC,0.00,0.0,WeatherDisplay:10.37,2013-01-01 07:50:00,
2013-01-01 01:59:00,-8.6,-15.5,30.29,WNW,302,3.0,5.0,71,0.00,CLR,OVC,0.00,0.0,WeatherDisplay:10.37,2013-01-01 07:59:00,
2013-01-01 02:10:00,-9.0,-15.8,30.30,WNW,302,3.0,4.0,71,0.00,CLR,OVC,0.00,0.0,WeatherDisplay:10.37,2013-01-01 08:10:00,
2013-01-01 02:20:00,-9.3,-16.2,30.30,WNW,302,2.0,3.0,71,0.00,CLR,OVC,0.00,0.0,WeatherDisplay:10.37,2013-01-01 08:20:00,
2013-01-01 02:30:00,-9.6,-16.4,30.30,WNW,302,2.0,3.0,71,0.00,CLR,OVC,0.00,0.0,WeatherDisplay:10.37,2013-01-01 08:30:00,
2013-01-01 02:40:00,-10.0,-16.8,30.30,WNW,302,2.0,3.0,71,0.00,CLR,OVC,0.00,0.0,WeatherDisplay:10.37,2013-01-01 08:40:00,
2013-01-01 02:50:00,-10.3,-17.1,30.30,WNW,302,2.0,3.0,71,0.00,CLR,OVC,0.00,0.0,WeatherDisplay:10.37,2013-01-01 08:50:00,
2013-01-01 02:59:00,-10.5,-17.6,30.29,WNW,282,3.0,4.0,70,0.00,CLR,OVC,0.00,0.0,WeatherDisplay:10.37,2013-01-01 08:59:00,
2013-01-01 03:10:00,-10.7,-17.8,30.30,West,261,2.0,4.0,70,0.00,CLR,OVC,0.00,0.0,WeatherDisplay:10.37,2013-01-01 09:10:00,
2013-01-01 03:20:00,-11.0,-17.8,30.30,West,261,1.0,3.0,71,0.00,CLR,OVC,0.00,0.0,WeatherDisplay:10.37,2013-01-01 09:20:00,
2013-01-01 03:30:00,-11.2,-17.7,30.30,West,261,2.0,3.0,72,0.00,CLR,OVC,0.00,0.0,WeatherDisplay:10.37,2013-01-01 09:30:00,
2013-01-01 03:40:00,-11.2,-17.7,30.30,West,261,2.0,3.0,72,0.00,CLR,OVC,0.00,0.0,WeatherDisplay:10.37,2013-01-01 09:40:00,
2013-01-01 03:50:00,-11.5,-18.3,30.30,West,261,1.0,3.0,71,0.00,CLR,OVC,0.00,0.0,WeatherDisplay:10.37,2013-01-01 09:50:00,
2013-01-01 03:59:00,-11.7,-18.4,30.30,West,261,1.0,2.0,71,0.00,CLR,OVC,0.00,0.0,WeatherDisplay:10.37,2013-01-01 09:59:00,
2013-01-01 04:10:00,-11.7,-18.2,30.30,West,261,3.0,4.0,72,0.00,CLR,OVC,0.00,0.0,WeatherDisplay:10.37,2013-01-01 10:10:00,
2013-01-01 04:20:00,-12.0,-18.8,30.30,West,261,2.0,4.0,71,0.00,CLR,OVC,0.00,0.0,WeatherDisplay:10.37,2013-01-01 10:20:00,
2013-01-01 04:30:00,-12.0,-18.8,30.31,West,261,1.0,3.0,71,0.00,CLR,OVC,0.00,0.0,WeatherDisplay:10.37,2013-01-01 10:30:00,
2013-01-01 04:40:00,-12.2,-19.0,30.30,West,261,2.0,4.0,71,0.00,CLR,OVC,0.00,0.0,WeatherDisplay:10.37,2013-01-01 10:40:00,
2013-01-01 04:50:00,-12.5,-19.2,30.31,West,261,1.0,4.0,71,0.00,CLR,OVC,0.00,0.0,WeatherDisplay:10.37,2013-01-01 10:50:00,
2013-01-01 04:59:00,-12.7,-19.8,30.31,West,261,3.0,4.0,70,0.00,CLR,OVC,0.00,0.0,WeatherDisplay:10.37,2013-01-01 10:59:00,
2013-01-01 05:10:00,-12.8,-19.5,30.32,WSW,256,2.0,5.0,71,0.00,CLR,OVC,0.00,0.0,WeatherDisplay:10.37,2013-01-01 11:10:00,
2013-01-01 05:20:00,-13.0,-19.7,30.31,WSW,247,3.0,5.0,71,0.00,CLR,OVC,0.00,0.0,WeatherDisplay:10.37,2013-01-01 11:20:00,
2013-01-01 05:30:00,-13.0,-19.7,30.32,WSW,247,2.0,4.0,71,0.00,CLR,OVC,0.00,0.0,WeatherDisplay:10.37,2013-01-01 11:30:00,
2013-01-01 05:40:00,-13.0,-19.5,30.31,WSW,247,2.0,4.0,72,0.00,CLR,OVC,0.00,0.0,WeatherDisplay:10.37,2013-01-01 11:40:00,
2013-01-01 05:50:00,-13.0,-19.2,30.31,WSW,247,2.0,3.0,73,0.00,CLR,OVC,0.00,0.0,WeatherDisplay:10.37,2013-01-01 11:50:00,
2013-01-01 05:59:00,-13.0,-19.2,30.32,WSW,247,2.0,3.0,73,0.00,CLR,OVC,0.00,0.0,WeatherDisplay:10.37,2013-01-01 11:59:00,
2013-01-01 06:10:00,-13.0,-19.2,30.31,WSW,247,2.0,3.0,73,0.00,CLR,OVC,0.00,0.0,WeatherDisplay:10.37,2013-01-01 12:10:00,
2013-01-01 06:20:00,-13.0,-19.5,30.32,WSW,247,2.0,4.0,72,0.00,CLR,OVC,0.00,0.0,WeatherDisplay:10.37,2013-01-01 12:20:00,
2013-01-01 06:30:00,-13.0,-19.5,30.32,WSW,247,3.0,4.0,72,0.00,CLR,OVC,0.00,0.0,WeatherDisplay:10.37,2013-01-01 12:30:00,
2013-01-01 06:40:00,-13.0,-19.2,30.32,WSW,247,2.0,4.0,73,0.00,CLR,OVC,0.00,0.0,WeatherDisplay:10.37,2013-01-01 12:40:00,
2013-01-01 06:50:00,-13.0,-19.2,30.32,WSW,247,3.0,5.0,73,0.00,CLR,OVC,0.00,0.0,WeatherDisplay:10.37,2013-01-01 12:50:00,
2013-01-01 06:59:00,-13.0,-19.2,30.32,WSW,244,2.0,5.0,73,0.00,CLR,OVC,0.00,0.0,WeatherDisplay:10.37,2013-01-01 12:59:00,
2013-01-01 07:10:00,-13.0,-19.2,30.32,WSW,244,2.0,4.0,73,0.00,CLR,OVC,0.00,0.0,WeatherDisplay:10.37,2013-01-01 13:10:00,
2013-01-01 07:20:00,-13.0,-19.2,30.32,WSW,244,3.0,5.0,73,0.00,CLR,OVC,0.00,0.0,WeatherDisplay:10.37,2013-01-01 13:20:00,
2013-01-01 07:30:00,-12.8,-19.0,30.32,WSW,243,3.0,5.0,73,0.00,CLR,OVC,0.00,0.0,WeatherDisplay:10.37,2013-01-01 13:30:00,
2013-01-01 07:40:00,-12.8,-19.0,30.32,WSW,242,3.0,5.0,73,0.00,CLR,OVC,0.00,0.0,WeatherDisplay:10.37,2013-01-01 13:40:00,
2013-01-01 07:50:00,-12.8,-19.0,30.32,WSW,245,2.0,5.0,73,0.00,CLR,OVC,0.00,0.0,WeatherDisplay:10.37,2013-01-01 13:50:00,
2013-01-01 07:59:00,-12.8,-19.0,30.32,WSW,245,5.0,6.0,73,0.00,CLR,OVC,0.00,0.0,WeatherDisplay:10.37,2013-01-01 13:59:00,
2013-01-01 08:10:00,-12.8,-19.0,30.32,WSW,245,2.0,5.0,73,0.00,CLR,OVC,0.00,0.0,WeatherDisplay:10.37,2013-01-01 14:10:00,
2013-01-01 08:20:00,-12.5,-18.4,30.32,WSW,247,3.0,5.0,74,0.00,CLR,OVC,0.00,0.0,WeatherDisplay:10.37,2013-01-01 14:20:00,
2013-01-01 08:30:00,-12.2,-17.9,30.32,WSW,245,3.0,5.0,75,0.00,CLR,OVC,0.00,0.0,WeatherDisplay:10.37,2013-01-01 14:30:00,
2013-01-01 08:39:00,-11.7,-17.1,30.32,WSW,243,5.0,6.0,76,0.00,CLR,OVC,0.00,0.0,WeatherDisplay:10.37,2013-01-01 14:39:00,
2013-01-01 08:50:00,-11.0,-16.2,30.32,SW,233,5.0,7.0,77,0.00,CLR,OVC,0.00,0.0,WeatherDisplay:10.37,2013-01-01 14:50:00,
2013-01-01 08:59:00,-10.2,-15.2,30.32,SW,233,3.0,7.0,78,0.00,OVC,OVC,0.00,0.0,WeatherDisplay:10.37,2013-01-01 14:59:00,
2013-01-01 09:09:00,-9.1,-13.8,30.32,SW,234,3.0,7.0,79,0.00,OVC,OVC,0.00,0.0,WeatherDisplay:10.37,2013-01-01 15:09:00,
2013-01-01 09:19:00,-7.9,-12.7,30.32,WSW,237,3.0,7.0,79,0.00,OVC,OVC,0.00,0.0,WeatherDisplay:10.37,2013-01-01 15:19:00,
2013-01-01 09:29:00,-6.8,-11.4,30.32,SW,234,2.0,6.0,80,0.00,OVC,OVC,0.00,0.0,WeatherDisplay:10.37,2013-01-01 15:29:00,
2013-01-01 09:40:00,-5.6,-10.2,30.32,SW,233,2.0,7.0,80,0.00,OVC,OVC,0.00,0.0,WeatherDisplay:10.37,2013-01-01 15:40:00,
2013-01-01 09:50:00,-4.6,-9.2,30.31,SW,236,5.0,7.0,80,0.00,OVC,OVC,0.00,0.0,WeatherDisplay:10.37,2013-01-01 15:50:00,
2013-01-01 09:59:00,-3.5,-8.1,30.31,WSW,240,3.0,7.0,80,0.00,OVC,OVC,0.00,0.0,WeatherDisplay:10.37,2013-01-01 15:59:00,
2013-01-01 10:09:00,-2.4,-7.1,30.31,WSW,246,6.0,8.0,80,0.00,OVC,OVC,0.00,0.0,WeatherDisplay:10.37,2013-01-01 16:09:00,
2013-01-01 10:20:00,-1.4,-6.1,30.31,West,262,6.0,12.0,80,0.00,OVC,OVC,0.00,0.0,WeatherDisplay:10.37,2013-01-01 16:20:00,
2013-01-01 10:30:00,-0.5,-5.1,30.30,WSW,245,6.0,12.0,80,0.00,OVC,OVC,0.00,0.0,WeatherDisplay:10.37,2013-01-01 16:30:00,
2013-01-01 10:39:00,0.3,-4.2,30.30,WSW,237,7.0,13.0,81,0.00,OVC,OVC,0.00,0.0,WeatherDisplay:10.37,2013-01-01 16:39:00,
2013-01-01 10:49:00,1.2,-3.2,30.30,WSW,250,7.0,13.0,81,0.00,OVC,OVC,0.00,0.0,WeatherDisplay:10.37,2013-01-01 16:49:00,
2013-01-01 10:59:00,2.0,-2.5,30.29,WSW,239,8.0,13.0,81,0.00,OVC,OVC,0.00,0.0,WeatherDisplay:10.37,2013-01-01 16:59:00,
2013-01-01 11:09:00,2.8,-1.7,30.28,SW,232,10.0,16.0,81,0.00,OVC,OVC,0.00,0.0,WeatherDisplay:10.37,2013-01-01 17:09:00,
2013-01-01 11:19:00,3.5,-1.0,30.28,WSW,239,10.0,15.0,81,0.00,OVC,OVC,0.00,0.0,WeatherDisplay:10.37,2013-01-01 17:19:00,
2013-01-01 11:29:00,4.3,-0.3,30.27,WSW,243,9.0,15.0,81,0.00,OVC,OVC,0.00,0.0,WeatherDisplay:10.37,2013-01-01 17:29:00,
2013-01-01 11:39:00,4.9,0.1,30.26,WSW,252,13.0,18.0,80,0.00,OVC,OVC,0.00,0.0,WeatherDisplay:10.37,2013-01-01 17:39:00,
2013-01-01 11:50:00,5.5,0.6,30.26,WSW,245,10.0,20.0,80,0.00,OVC,OVC,0.00,0.0,WeatherDisplay:10.37,2013-01-01 17:50:00,
2013-01-01 12:00:00,6.0,1.2,30.25,WSW,239,8.0,15.0,80,0.00,OVC,OVC,0.00,0.0,WeatherDisplay:10.37,2013-01-01 18:00:00,
2013-01-01 12:10:00,6.7,1.3,30.24,WSW,250,8.0,17.0,78,0.00,OVC,OVC,0.00,0.0,WeatherDisplay:10.37,2013-01-01 18:10:00,
2013-01-01 12:19:00,7.2,1.2,30.24,WSW,239,12.0,17.0,76,0.00,OVC,OVC,0.00,0.0,WeatherDisplay:10.37,2013-01-01 18:19:00,
2013-01-01 12:29:00,7.7,0.5,30.23,WSW,246,12.0,15.0,72,0.00,OVC,OVC,0.00,0.0,WeatherDisplay:10.37,2013-01-01 18:29:00,
2013-01-01 12:39:00,8.4,0.3,30.23,WSW,238,14.0,17.0,69,0.00,OVC,OVC,0.00,0.0,WeatherDisplay:10.37,2013-01-01 18:39:00,
2013-01-01 12:49:00,8.8,0.1,30.22,WSW,252,10.0,16.0,67,0.00,OVC,OVC,0.00,0.0,WeatherDisplay:10.37,2013-01-01 18:49:00,
2013-01-01 12:59:00,9.3,0.5,30.21,WSW,249,9.0,14.0,67,0.00,OVC,OVC,0.00,0.0,WeatherDisplay:10.37,2013-01-01 18:59:00,
2013-01-01 13:09:00,9.7,0.3,30.21,WSW,246,13.0,20.0,65,0.00,OVC,OVC,0.00,0.0,WeatherDisplay:10.37,2013-01-01 19:09:00,
2013-01-01 13:19:00,10.0,0.2,30.21,WSW,249,13.0,22.0,64,0.00,OVC,OVC,0.00,0.0,WeatherDisplay:10.37,2013-01-01 19:19:00,
2013-01-01 13:29:00,10.4,0.3,30.20,SW,236,14.0,17.0,63,0.00,OVC,OVC,0.00,0.0,WeatherDisplay:10.37,2013-01-01 19:29:00,
2013-01-01 13:39:00,10.7,0.2,30.19,WSW,251,10.0,20.0,62,0.00,OVC,OVC,0.00,0.0,WeatherDisplay:10.37,2013-01-01 19:39:00,
2013-01-01 13:49:00,10.9,0.8,30.19,SW,236,8.0,16.0,63,0.00,OVC,OVC,0.00,0.0,WeatherDisplay:10.37,2013-01-01 19:49:00,
2013-01-01 13:59:00,10.6,-0.2,30.19,WSW,242,12.0,17.0,61,0.00,OVC,OVC,0.00,0.0,WeatherDisplay:10.37,2013-01-01 19:59:00,
2013-01-01 14:08:00,10.7,0.2,30.19,SW,227,17.3,17.3,62,0.00,OVC,,0.00,0.0,WeatherDisplay:10.37,2013-01-01 20:08:00,
2013-01-01 14:13:00,11.1,0.3,30.19,WSW,239,11.5,11.5,61,0.00,OVC,,0.00,0.0,WeatherDisplay:10.37,2013-01-01 20:13:00,
2013-01-01 14:19:00,11.1,0.6,30.19,WSW,249,12.7,12.7,62,0.00,OVC,,0.00,0.0,WeatherDisplay:10.37,2013-01-01 20:19:00,
2013-01-01 14:24:00,11.1,0.9,30.19,WSW,254,19.6,19.6,63,0.00,OVC,,0.00,0.0,WeatherDisplay:10.37,2013-01-01 20:24:00,
2013-01-01 14:29:00,11.2,0.7,30.19,WSW,248,19.6,19.6,62,0.00,OVC,,0.00,0.0,WeatherDisplay:10.37,2013-01-01 20:29:00,
2013-01-01 14:34:00,11.1,-0.8,30.19,WSW,246,23.0,23.0,58,0.00,OVC,,0.00,0.0,WeatherDisplay:10.37,2013-01-01 20:34:00,
2013-01-01 14:39:00,10.9,0.1,30.19,SW,235,21.9,21.9,61,0.00,OVC,,0.00,0.0,WeatherDisplay:10.37,2013-01-01 20:39:00,
2013-01-01 14:44:00,10.9,0.4,30.19,SW,231,20.7,20.7,62,0.00,OVC,,0.00,0.0,WeatherDisplay:10.37,2013-01-01 20:44:00,
2013-01-01 14:49:00,10.9,0.8,30.20,SW,235,19.6,19.6,63,0.00,OVC,,0.00,0.0,WeatherDisplay:10.37,2013-01-01 20:49:00,
2013-01-01 14:54:00,10.9,1.1,30.20,SW,233,19.6,19.6,64,0.00,OVC,,0.00,0.0,WeatherDisplay:10.37,2013-01-01 20:54:00,
2013-01-01 14:59:00,10.9,1.1,30.20,SW,234,16.0,25.0,64,0.00,CLR,OVC,0.00,0.0,WeatherDisplay:10.37,2013-01-01 20:59:00,
2013-01-01 15:05:00,10.7,1.2,30.20,WSW,242,16.1,16.1,65,0.00,CLR,OVC,0.00,0.0,WeatherDisplay:10.37,2013-01-01 21:05:00,
2013-01-01 15:10:00,10.7,1.9,30.21,SW,227,17.3,17.3,67,0.00,CLR,OVC,0.00,0.0,WeatherDisplay:10.37,2013-01-01 21:10:00,
2013-01-01 15:15:00,10.5,2.0,30.21,WSW,256,18.4,18.4,68,0.00,CLR,OVC,0.00,0.0,WeatherDisplay:10.37,2013-01-01 21:15:00,
2013-01-01 15:20:00,10.5,2.3,30.20,West,271,10.4,10.4,69,0.00,CLR,OVC,0.00,0.0,WeatherDisplay:10.37,2013-01-01 21:20:00,
2013-01-01 15:25:00,10.5,3.3,30.20,WSW,239,13.0,13.0,72,0.00,CLR,OVC,0.00,0.0,WeatherDisplay:10.37,2013-01-01 21:25:00,
2013-01-01 15:30:00,10.5,3.3,30.20,WSW,255,11.5,11.5,72,0.00,CLR,OVC,0.00,0.0,WeatherDisplay:10.37,2013-01-01 21:30:00,
2013-01-01 15:35:00,10.5,3.8,30.20,WSW,244,11.5,11.5,74,0.00,CLR,OVC,0.00,0.0,WeatherDisplay:10.37,2013-01-01 21:35:00,
2013-01-01 15:40:00,10.5,4.1,30.20,WSW,239,10.4,10.4,75,0.00,CLR,OVC,0.00,0.0,WeatherDisplay:10.37,2013-01-01 21:40:00,
2013-01-01 15:46:00,10.5,4.1,30.20,WSW,238,10.4,10.4,75,0.00,CLR,OVC,0.00,0.0,WeatherDisplay:10.37,2013-01-01 21:46:00,
2013-01-01 15:51:00,10.5,4.1,30.20,WSW,241,12.0,12.0,75,0.00,CLR,OVC,0.00,0.0,WeatherDisplay:10.37,2013-01-01 21:51:00,
2013-01-01 15:56:00,10.7,4.6,30.20,SW,234,9.2,9.2,76,0.00,CLR,OVC,0.00,0.0,WeatherDisplay:10.37,2013-01-01 21:56:00,
2013-01-01 16:01:00,10.7,4.6,30.20,SW,229,12.7,12.7,76,0.00,CLR,OVC,0.00,0.0,WeatherDisplay:10.37,2013-01-01 22:01:00,
2013-01-01 16:06:00,10.7,4.6,30.20,WSW,252,11.5,11.5,76,0.00,CLR,OVC,0.00,0.0,WeatherDisplay:10.37,2013-01-01 22:06:00,
2013-01-01 16:11:00,10.7,4.6,30.20,WSW,237,11.5,11.5,76,0.00,CLR,OVC,0.00,0.0,WeatherDisplay:10.37,2013-01-01 22:11:00,
2013-01-01 16:16:00,10.7,4.6,30.20,WSW,244,11.5,11.5,76,0.00,CLR,OVC,0.00,0.0,WeatherDisplay:10.37,2013-01-01 22:16:00,
2013-01-01 16:22:00,10.7,4.9,30.20,WSW,248,13.8,13.8,77,0.00,CLR,OVC,0.00,0.0,WeatherDisplay:10.37,2013-01-01 22:22:00,
2013-01-01 16:27:00,10.7,4.9,30.20,WSW,239,11.5,11.5,77,0.00,CLR,OVC,0.00,0.0,WeatherDisplay:10.37,2013-01-01 22:27:00,
2013-01-01 16:32:00,10.7,5.2,30.20,WSW,244,11.5,11.5,78,0.00,CLR,OVC,0.00,0.0,WeatherDisplay:10.37,2013-01-01 22:32:00,
2013-01-01 16:37:00,10.7,5.2,30.20,SW,235,10.4,10.4,78,0.00,CLR,OVC,0.00,0.0,WeatherDisplay:10.37,2013-01-01 22:37:00,
2013-01-01 16:42:00,10.9,5.4,30.20,SW,226,10.4,10.4,78,0.00,CLR,OVC,0.00,0.0,WeatherDisplay:10.37,2013-01-01 22:42:00,
2013-01-01 16:47:00,10.9,5.4,30.20,SW,218,10.4,10.4,78,0.00,CLR,OVC,0.00,0.0,WeatherDisplay:10.37,2013-01-01 22:47:00,
2013-01-01 16:52:00,10.9,5.7,30.19,WSW,240,10.0,10.0,79,0.00,CLR,OVC,0.00,0.0,WeatherDisplay:10.37,2013-01-01 22:52:00,
2013-01-01 16:57:00,10.9,5.7,30.19,SW,230,10.4,10.4,79,0.00,CLR,OVC,0.00,0.0,WeatherDisplay:10.37,2013-01-01 22:57:00,
2013-01-01 17:03:00,10.9,5.7,30.19,WSW,243,12.7,12.7,79,0.00,CLR,OVC,0.00,0.0,WeatherDisplay:10.37,2013-01-01 23:03:00,
2013-01-01 17:08:00,10.9,5.9,30.19,WSW,242,10.4,10.4,80,0.00,CLR,OVC,0.00,0.0,WeatherDisplay:10.37,2013-01-01 23:08:00,
2013-01-01 17:13:00,10.9,5.9,30.19,SW,230,9.2,9.2,80,0.00,CLR,OVC,0.00,0.0,WeatherDisplay:10.37,2013-01-01 23:13:00,
2013-01-01 17:18:00,10.9,5.9,30.19,WSW,237,12.7,12.7,80,0.00,CLR,OVC,0.00,0.0,WeatherDisplay:10.37,2013-01-01 23:18:00,
2013-01-01 17:23:00,11.1,6.1,30.19,SW,225,11.5,11.5,80,0.00,CLR,OVC,0.00,0.0,WeatherDisplay:10.37,2013-01-01 23:23:00,
2013-01-01 17:28:00,11.1,6.4,30.19,WSW,238,18.4,18.4,81,0.00,CLR,OVC,0.00,0.0,WeatherDisplay:10.37,2013-01-01 23:28:00,
2013-01-01 17:33:00,11.1,6.4,30.19,WSW,237,15.0,15.0,81,0.00,CLR,OVC,0.00,0.0,WeatherDisplay:10.37,2013-01-01 23:33:00,
2013-01-01 17:39:00,11.1,6.4,30.19,WSW,248,10.4,10.4,81,0.00,CLR,OVC,0.00,0.0,WeatherDisplay:10.37,2013-01-01 23:39:00,
2013-01-01 17:44:00,11.2,6.5,30.19,SW,230,11.5,11.5,81,0.00,CLR,OVC,0.00,0.0,WeatherDisplay:10.37,2013-01-01 23:44:00,
2013-01-01 17:49:00,11.2,6.5,30.18,WSW,240,12.0,12.0,81,0.00,CLR,OVC,0.00,0.0,WeatherDisplay:10.37,2013-01-01 23:49:00,
2013-01-01 17:54:00,11.2,6.8,30.19,SW,225,10.4,10.4,82,0.00,CLR,OVC,0.00,0.0,WeatherDisplay:10.37,2013-01-01 23:54:00,
2013-01-01 17:59:00,11.2,6.8,30.19,SW,228,11.5,11.5,82,0.00,CLR,OVC,0.00,0.0,WeatherDisplay:10.37,2013-01-01 23:59:00,
2013-01-01 18:04:00,11.4,7.0,30.19,West,266,13.8,13.8,82,0.00,CLR,OVC,0.00,0.0,WeatherDisplay:10.37,2013-01-02 00:04:00,
2013-01-01 18:09:00,11.4,6.7,30.19,WSW,242,17.3,17.3,81,0.00,CLR,OVC,0.00,0.0,WeatherDisplay:10.37,2013-01-02 00:09:00,
2013-01-01 18:14:00,11.4,7.0,30.18,WSW,246,9.2,10.4,82,0.00,CLR,OVC,0.00,0.0,WeatherDisplay:10.37,2013-01-02 00:14:00,
2013-01-01 18:19:00,11.4,7.0,30.18,WSW,241,12.0,14.0,82,0.00,CLR,OVC,0.00,0.0,WeatherDisplay:10.37,2013-01-02 00:19:00,
2013-01-01 18:24:00,11.6,7.2,30.18,SW,236,11.5,11.5,82,0.00,CLR,OVC,0.00,0.0,WeatherDisplay:10.37,2013-01-02 00:24:00,
2013-01-01 18:29:00,11.6,7.2,30.18,SW,234,10.0,14.0,82,0.00,CLR,OVC,0.00,0.0,WeatherDisplay:10.37,2013-01-02 00:29:00,
2013-01-01 18:35:00,11.6,7.2,30.18,SW,233,11.5,11.5,82,0.00,CLR,OVC,0.00,0.0,WeatherDisplay:10.37,2013-01-02 00:35:00,
2013-01-01 18:40:00,11.7,7.3,30.18,SW,219,7.0,7.0,82,0.00,CLR,OVC,0.00,0.0,WeatherDisplay:10.37,2013-01-02 00:40:00,
2013-01-01 18:45:00,11.7,7.5,30.18,WSW,242,11.5,11.5,83,0.00,CLR,OVC,0.00,0.0,WeatherDisplay:10.37,2013-01-02 00:45:00,
2013-01-01 18:50:00,11.7,7.5,30.18,WSW,238,10.0,10.0,83,0.00,CLR,OVC,0.00,0.0,WeatherDisplay:10.37,2013-01-02 00:50:00,
2013-01-01 18:55:00,11.7,7.5,30.18,WSW,254,9.2,9.2,83,0.00,CLR,OVC,0.00,0.0,WeatherDisplay:10.37,2013-01-02 00:55:00,
2013-01-01 19:00:00,11.7,7.5,30.18,WSW,239,11.5,11.5,83,0.00,CLR,OVC,0.00,0.0,WeatherDisplay:10.37,2013-01-02 01:00:00,
2013-01-01 19:05:00,11.7,7.5,30.18,WSW,250,3.5,4.0,83,0.00,CLR,OVC,0.00,0.0,WeatherDisplay:10.37,2013-01-02 01:05:00,
2013-01-01 19:10:00,11.9,7.7,30.18,WSW,238,9.2,9.2,83,0.00,CLR,OVC,0.00,0.0,WeatherDisplay:10.37,2013-01-02 01:10:00,
2013-01-01 19:16:00,11.9,7.7,30.17,WSW,243,10.4,10.4,83,0.00,CLR,OVC,0.00,0.0,WeatherDisplay:10.37,2013-01-02 01:16:00,
2013-01-01 19:21:00,11.9,7.7,30.17,WSW,248,10.4,10.4,83,0.00,CLR,OVC,0.00,0.0,WeatherDisplay:10.37,2013-01-02 01:21:00,
2013-01-01 19:26:00,11.9,7.7,30.17,WSW,248,6.0,6.0,83,0.00,CLR,OVC,0.00,0.0,WeatherDisplay:10.37,2013-01-02 01:26:00,
2013-01-01 19:31:00,12.1,7.9,30.17,WSW,248,11.5,11.5,83,0.00,CLR,OVC,0.00,0.0,WeatherDisplay:10.37,2013-01-02 01:31:00,
2013-01-01 19:36:00,12.1,7.9,30.18,West,261,10.4,10.4,83,0.00,CLR,OVC,0.00,0.0,WeatherDisplay:10.37,2013-01-02 01:36:00,
2013-01-01 19:41:00,12.1,7.9,30.18,WSW,243,8.1,8.1,83,0.00,CLR,OVC,0.00,0.0,WeatherDisplay:10.37,2013-01-02 01:41:00,
2013-01-01 19:46:00,12.1,7.9,30.18,WSW,248,8.1,8.1,83,0.00,CLR,OVC,0.00,0.0,WeatherDisplay:10.37,2013-01-02 01:46:00,
2013-01-01 19:52:00,12.1,7.9,30.17,WSW,250,6.9,6.9,83,0.00,CLR,OVC,0.00,0.0,WeatherDisplay:10.37,2013-01-02 01:52:00,
2013-01-01 19:57:00,12.1,7.9,30.17,WSW,254,9.2,9.2,83,0.00,CLR,OVC,0.00,0.0,WeatherDisplay:10.37,2013-01-02 01:57:00,
2013-01-01 20:02:00,12.3,8.1,30.17,WSW,237,9.2,9.2,83,0.00,CLR,OVC,0.00,0.0,WeatherDisplay:10.37,2013-01-02 02:02:00,
2013-01-01 20:07:00,12.3,8.1,30.17,WSW,239,10.4,10.4,83,0.00,CLR,OVC,0.00,0.0,WeatherDisplay:10.37,2013-01-02 02:07:00,
2013-01-01 20:12:00,12.3,8.1,30.17,WSW,248,8.1,8.1,83,0.00,CLR,OVC,0.00,0.0,WeatherDisplay:10.37,2013-01-02 02:12:00,
2013-01-01 20:17:00,12.3,8.1,30.17,West,261,10.4,10.4,83,0.00,CLR,OVC,0.00,0.0,WeatherDisplay:10.37,2013-01-02 02:17:00,
2013-01-01 20:22:00,12.3,8.1,30.17,WSW,240,10.4,10.4,83,0.00,CLR,OVC,0.00,0.0,WeatherDisplay:10.37,2013-01-02 02:22:00,
2013-01-01 20:27:00,12.3,8.1,30.17,WSW,240,8.1,8.1,83,0.00,CLR,OVC,0.00,0.0,WeatherDisplay:10.37,2013-01-02 02:27:00,
2013-01-01 20:33:00,12.3,8.1,30.17,WSW,247,8.1,8.1,83,0.00,CLR,OVC,0.00,0.0,WeatherDisplay:10.37,2013-01-02 02:33:00,
2013-01-01 20:38:00,12.3,8.1,30.17,WSW,237,10.4,10.4,83,0.00,CLR,OVC,0.00,0.0,WeatherDisplay:10.37,2013-01-02 02:38:00,
2013-01-01 20:43:00,12.3,8.1,30.17,WSW,239,10.4,10.4,83,0.00,CLR,OVC,0.00,0.0,WeatherDisplay:10.37,2013-01-02 02:43:00,
2013-01-01 20:48:00,12.3,8.1,30.16,SW,234,6.9,6.9,83,0.00,CLR,OVC,0.00,0.0,WeatherDisplay:10.37,2013-01-02 02:48:00,
2013-01-01 20:53:00,12.3,8.1,30.16,WSW,244,9.2,9.2,83,0.00,CLR,OVC,0.00,0.0,WeatherDisplay:10.37,2013-01-02 02:53:00,
2013-01-01 20:58:00,12.3,8.1,30.16,WSW,242,8.1,8.1,83,0.00,CLR,OVC,0.00,0.0,WeatherDisplay:10.37,2013-01-02 02:58:00,
2013-01-01 21:03:00,12.3,8.1,30.16,WSW,257,8.1,8.1,83,0.00,CLR,OVC,0.00,0.0,WeatherDisplay:10.37,2013-01-02 03:03:00,
2013-01-01 21:09:00,12.3,8.4,30.16,WSW,238,9.0,9.0,84,0.00,CLR,OVC,0.00,0.0,WeatherDisplay:10.37,2013-01-02 03:09:00,
2013-01-01 21:14:00,12.3,8.4,30.16,SW,235,8.1,8.1,84,0.00,CLR,OVC,0.00,0.0,WeatherDisplay:10.37,2013-01-02 03:14:00,
2013-01-01 21:19:00,12.3,8.4,30.16,SW,232,11.5,11.5,84,0.00,CLR,OVC,0.00,0.0,WeatherDisplay:10.37,2013-01-02 03:19:00,
2013-01-01 21:24:00,12.3,8.4,30.16,SW,236,6.9,6.9,84,0.00,CLR,OVC,0.00,0.0,WeatherDisplay:10.37,2013-01-02 03:24:00,
2013-01-01 21:29:00,12.3,8.4,30.16,SW,229,8.1,8.1,84,0.00,CLR,OVC,0.00,0.0,WeatherDisplay:10.37,2013-01-02 03:29:00,
2013-01-01 21:34:00,12.3,8.4,30.16,WSW,238,6.9,6.9,84,0.00,CLR,OVC,0.00,0.0,WeatherDisplay:10.37,2013-01-02 03:34:00,
2013-01-01 21:39:00,12.3,8.4,30.16,SW,235,7.0,7.0,84,0.00,CLR,OVC,0.00,0.0,WeatherDisplay:10.37,2013-01-02 03:39:00,
2013-01-01 21:44:00,12.3,8.4,30.16,SW,228,5.8,5.8,84,0.00,CLR,OVC,0.00,0.0,WeatherDisplay:10.37,2013-01-02 03:44:00,
2013-01-01 21:49:00,12.3,8.4,30.16,SW,228,6.0,8.0,84,0.00,CLR,OVC,0.00,0.0,WeatherDisplay:10.37,2013-01-02 03:49:00,
2013-01-01 21:54:00,12.3,8.4,30.16,SW,217,8.1,8.1,84,0.00,CLR,OVC,0.00,0.0,WeatherDisplay:10.37,2013-01-02 03:54:00,
2013-01-01 21:59:00,12.3,8.1,30.15,SW,229,5.0,9.0,83,0.00,CLR,OVC,0.00,0.0,WeatherDisplay:10.37,2013-01-02 03:59:00,
2013-01-01 22:05:00,12.3,8.1,30.15,SW,233,3.5,3.5,83,0.00,CLR,OVC,0.00,0.0,WeatherDisplay:10.37,2013-01-02 04:05:00,
2013-01-01 22:10:00,12.3,8.1,30.15,SSW,208,5.8,5.8,83,0.00,CLR,OVC,0.00,0.0,WeatherDisplay:10.37,2013-01-02 04:10:00,
2013-01-01 22:15:00,12.1,7.9,30.15,SSW,204,8.1,8.1,83,0.00,CLR,OVC,0.00,0.0,WeatherDisplay:10.37,2013-01-02 04:15:00,
2013-01-01 22:20:00,12.1,7.7,30.15,SSW,194,6.9,6.9,82,0.00,CLR,OVC,0.00,0.0,WeatherDisplay:10.37,2013-01-02 04:20:00,
2013-01-01 22:25:00,12.1,7.7,30.15,SW,221,5.8,5.8,82,0.00,CLR,OVC,0.00,0.0,WeatherDisplay:10.37,2013-01-02 04:25:00,
2013-01-01 22:30:00,12.1,7.7,30.15,SW,218,6.9,6.9,82,0.00,CLR,OVC,0.00,0.0,WeatherDisplay:10.37,2013-01-02 04:30:00,
2013-01-01 22:35:00,11.9,7.5,30.14,SW,236,4.6,4.6,82,0.00,CLR,OVC,0.00,0.0,WeatherDisplay:10.37,2013-01-02 04:35:00,
2013-01-01 22:40:00,11.9,7.5,30.14,SW,219,9.2,9.2,82,0.00,CLR,OVC,0.00,0.0,WeatherDisplay:10.37,2013-01-02 04:40:00,
2013-01-01 22:46:00,11.9,7.5,30.14,WSW,244,2.3,2.3,82,0.00,CLR,OVC,0.00,0.0,WeatherDisplay:10.37,2013-01-02 04:46:00,
2013-01-01 22:51:00,11.7,7.3,30.14,SW,227,3.5,3.5,82,0.00,CLR,OVC,0.00,0.0,WeatherDisplay:10.37,2013-01-02 04:51:00,
2013-01-01 22:56:00,11.7,7.3,30.14,SSW,206,4.6,4.6,82,0.00,CLR,OVC,0.00,0.0,WeatherDisplay:10.37,2013-01-02 04:56:00,
2013-01-01 23:00:00,11.7,7.3,30.14,SSW,210,8.1,8.1,82,0.00,CLR,OVC,0.00,0.0,WeatherDisplay:10.37,2013-01-02 05:00:00,
2013-01-01 23:03:00,11.7,7.3,30.14,SW,228,8.1,8.1,82,0.00,CLR,OVC,0.00,0.0,WeatherDisplay:10.37,2013-01-02 05:03:00,
2013-01-01 23:08:00,11.7,7.3,30.14,SW,224,9.2,9.2,82,0.00,CLR,OVC,0.00,0.0,WeatherDisplay:10.37,2013-01-02 05:08:00,
2013-01-01 23:13:00,11.7,7.5,30.14,WSW,240,5.8,5.8,83,0.00,CLR,OVC,0.00,0.0,WeatherDisplay:10.37,2013-01-02 05:13:00,
2013-01-01 23:18:00,11.7,7.5,30.14,SW,220,5.0,5.0,83,0.00,CLR,OVC,0.00,0.0,WeatherDisplay:10.37,2013-01-02 05:18:00,
2013-01-01 23:23:00,11.7,7.5,30.14,WSW,239,3.5,3.5,83,0.00,CLR,OVC,0.00,0.0,WeatherDisplay:10.37,2013-01-02 05:23:00,
2013-01-01 23:29:00,11.9,7.7,30.14,SW,220,4.6,4.6,83,0.00,CLR,OVC,0.00,0.0,WeatherDisplay:10.37,2013-01-02 05:29:00,
2013-01-01 23:34:00,11.9,7.7,30.13,SSW,206,6.9,6.9,83,0.00,CLR,OVC,0.00,0.0,WeatherDisplay:10.37,2013-01-02 05:34:00,
2013-01-01 23:39:00,11.9,7.7,30.14,SW,233,5.0,5.0,83,0.00,CLR,OVC,0.00,0.0,WeatherDisplay:10.37,2013-01-02 05:39:00,
2013-01-01 23:44:00,11.9,7.7,30.14,SW,221,5.8,5.8,83,0.00,CLR,OVC,0.00,0.0,WeatherDisplay:10.37,2013-01-02 05:44:00,
2013-01-01 23:49:00,11.9,7.7,30.13,SW,235,5.0,5.0,83,0.00,CLR,OVC,0.00,0.0,WeatherDisplay:10.37,2013-01-02 05:49:00,
2013-01-01 23:54:00,11.9,7.7,30.13,WSW,242,4.6,4.6,83,0.00,CLR,OVC,0.00,0.0,WeatherDisplay:10.37,2013-01-02 05:54:00,
2013-01-01 23:59:00,11.9,7.7,30.13,SW,225,5.8,5.8,83,0.00,CLR,OVC,0.00,0.0,WeatherDisplay:10.37,2013-01-02 05:59:00,